Flight Track Log - Related Links

Times and Time Zones

All times are in EDT time to prevent confusion due to time zone crossing. See the SWA16 flight status page for this flight to view local times or setup timezone preferences in your user account.

Time Position Orientation Groundspeed Altitude Reporting Facility
EDT Latitude Longitude Course Direction KTS MPH feet Rate Location/Type
Wed 02:24:34 PM 35.2017 -101.9531 269° West 255 293 11,200  Level Albuquerque Center
Wed 02:25:36 PM 35.2011 -102.0653 270° West 321 369 14,000 3,145 Climbing Albuquerque Center
Wed 02:26:38 PM 35.1994 -102.2044 269° West 339 390 17,700 3,268 Climbing Albuquerque Center
Wed 02:27:39 PM 35.1983 -102.3236 269° West 348 400 20,700 2,634 Climbing Albuquerque Center
Wed 02:28:00 PM 35.2000 -102.4441 270° West  Level FlightAware Approximate
Wed 02:28:41 PM 35.1978 -102.4439 270° West 353 406 23,100  Level Albuquerque Center
Wed 02:29:43 PM 35.1961 -102.5686 269° West 364 419 25,300 2,043 Climbing Albuquerque Center
Wed 02:31:46 PM 35.1936 -102.8281 269° West 383 441 29,400 2,076 Climbing Albuquerque Center
Wed 02:32:48 PM 35.1931 -102.9678 270° West 377 434 31,700 2,032 Climbing Albuquerque Center
Wed 02:33:50 PM 35.1922 -103.0947 270° West 373 429 33,600 1,839 Climbing Albuquerque Center
Wed 02:34:52 PM 35.1897 -103.2206 269° West 369 425 35,500 1,790 Climbing Albuquerque Center
Wed 02:35:54 PM 35.1872 -103.3386 269° West 352 405 37,300 1,220 Climbing Albuquerque Center
Wed 02:36:55 PM 35.1850 -103.4558 269° West 345 397 38,000 341 Climbing Albuquerque Center
Wed 02:37:57 PM 35.1828 -103.5931 269° West 344 396 38,000  Level Albuquerque Center
Wed 02:38:59 PM 35.1794 -103.7108 268° West 344 396 38,000  Level Albuquerque Center
Wed 02:40:01 PM 35.1756 -103.8289 268° West 344 396 38,000  Level Albuquerque Center
Wed 02:41:03 PM 35.1714 -103.9525 268° West 346 398 38,000  Level Albuquerque Center
Wed 02:42:04 PM 35.1653 -104.0694 266° West 346 398 38,000  Level Albuquerque Center
Wed 02:43:06 PM 35.1603 -104.1872 267° West 347 399 38,000  Level Albuquerque Center
Wed 02:44:08 PM 35.1569 -104.3061 268° West 349 402 38,000  Level Albuquerque Center
Wed 02:45:10 PM 35.1519 -104.4225 267° West 346 398 38,000  Level Albuquerque Center
Wed 02:46:12 PM 35.1500 -104.5392 269° West 345 397 38,000  Level Albuquerque Center
Wed 02:47:14 PM 35.1456 -104.6653 268° West 342 394 38,000  Level Albuquerque Center
Wed 02:48:15 PM 35.1406 -104.7842 267° West 346 398 38,000  Level Albuquerque Center
Wed 02:49:17 PM 35.1364 -104.9019 268° West 345 397 38,000  Level Albuquerque Center
Wed 02:50:19 PM 35.1311 -105.0408 267° West 347 399 38,000  Level Albuquerque Center
Wed 02:51:21 PM 35.1264 -105.1603 267° West 349 402 38,000  Level Albuquerque Center
Wed 02:52:23 PM 35.1208 -105.2794 267° West 348 400 38,000  Level Albuquerque Center
Wed 02:53:25 PM 35.1161 -105.3986 267° West 349 402 38,000  Level Albuquerque Center
Wed 02:54:26 PM 35.1111 -105.5178 267° West 350 403 38,000  Level Albuquerque Center
Wed 02:55:28 PM 35.1114 -105.6375 270° West 349 402 38,000  Level Albuquerque Center
Wed 02:56:30 PM 35.1253 -105.7561 278° West 348 400 38,000  Level Albuquerque Center
Wed 02:57:32 PM 35.1375 -105.8733 277° West 347 399 38,000  Level Albuquerque Center
Wed 02:58:34 PM 35.1458 -105.9900 275° West 342 394 38,000  Level Albuquerque Center
Wed 02:59:36 PM 35.1594 -106.1269 277° West 344 396 38,000  Level Albuquerque Center
Wed 03:00:37 PM 35.1694 -106.2342 277° West 344 396 38,000  Level Albuquerque Center
Wed 03:01:39 PM 35.1814 -106.3506 277° West 345 397 38,000  Level Albuquerque Center
Wed 03:02:41 PM 35.1919 -106.4694 276° West 350 403 38,000  Level Albuquerque Center
Wed 03:03:43 PM 35.2058 -106.6008 277° West 344 396 38,000  Level Albuquerque Center
Wed 03:04:45 PM 35.2161 -106.7128 276° West 345 397 38,000  Level Albuquerque Center
Wed 03:05:47 PM 35.2283 -106.8411 277° West 342 394 38,000  Level Albuquerque Center
Wed 03:06:49 PM 35.2344 -106.9544 274° West 346 398 38,000  Level Albuquerque Center
Wed 03:07:51 PM 35.2464 -107.0844 276° West 344 396 38,000  Level Albuquerque Center
Wed 03:08:53 PM 35.2569 -107.2081 276° West 351 404 38,000  Level Albuquerque Center
Wed 03:09:55 PM 35.2667 -107.3278 276° West 355 409 38,000  Level Albuquerque Center
Wed 03:10:57 PM 35.2767 -107.4478 276° West 356 410 38,000  Level Albuquerque Center
Wed 03:11:59 PM 35.2889 -107.5831 276° West 357 411 38,000  Level Albuquerque Center
Wed 03:13:01 PM 35.2969 -107.6994 275° West 357 411 38,000  Level Albuquerque Center
Wed 03:14:03 PM 35.3081 -107.8322 276° West 353 406 38,000  Level Albuquerque Center
Wed 03:15:05 PM 35.3175 -107.9447 276° West 350 403 38,000  Level Albuquerque Center
Wed 03:16:07 PM 35.3264 -108.0583 276° West 349 402 38,000  Level Albuquerque Center
Wed 03:17:09 PM 35.3358 -108.1906 275° West 348 400 38,000  Level Albuquerque Center
Wed 03:18:11 PM 35.3447 -108.3036 276° West 349 402 38,000  Level Albuquerque Center
Wed 03:19:13 PM 35.3561 -108.4361 276° West 349 402 38,000  Level Albuquerque Center
Wed 03:20:15 PM 35.3636 -108.5517 275° West 352 405 38,000  Level Albuquerque Center
Wed 03:21:17 PM 35.3733 -108.6878 275° West 356 410 38,000  Level Albuquerque Center
Wed 03:22:19 PM 35.3814 -108.8033 275° West 356 410 38,000  Level Albuquerque Center
Wed 03:23:21 PM 35.3914 -108.9386 275° West 355 409 38,000  Level Albuquerque Center
Wed 03:24:23 PM 35.4000 -109.0550 275° West 357 411 38,000  Level Albuquerque Center
Wed 03:25:25 PM 35.4072 -109.1711 274° West 357 411 38,000  Level Albuquerque Center
Wed 03:26:27 PM 35.4167 -109.3061 275° West 355 409 38,000  Level Albuquerque Center
Wed 03:27:29 PM 35.4247 -109.4239 275° West 358 412 38,000  Level Albuquerque Center
Wed 03:28:31 PM 35.4328 -109.5619 274° West 363 418 38,000  Level Albuquerque Center
Wed 03:29:33 PM 35.4392 -109.6797 274° West 361 415 38,000  Level Albuquerque Center
Wed 03:30:35 PM 35.4481 -109.8178 275° West 362 417 38,000  Level Albuquerque Center
Wed 03:31:37 PM 35.4539 -109.9231 274° West 337 388 38,000  Level Albuquerque Center
Wed 03:32:39 PM 35.4614 -110.0450 274° West 325 374 38,000  Level Albuquerque Center
Wed 03:33:42 PM 35.4664 -110.1517 273° West 326 375 38,000 -48 Level Albuquerque Center
Wed 03:34:44 PM 35.4731 -110.2756 274° West 327 376 37,900 -484 Descending Albuquerque Center
Wed 03:35:46 PM 35.4789 -110.3819 274° West 326 375 37,000 -919 Descending Albuquerque Center
Wed 03:36:48 PM 35.4856 -110.4906 274° West 330 380 36,000 -1,403 Descending Albuquerque Center
Wed 03:37:50 PM 35.4922 -110.6219 274° West 340 391 34,100 -1,355 Descending Albuquerque Center
Wed 03:38:52 PM 35.5000 -110.7358 275° West 347 399 33,200 -968 Descending Albuquerque Center
Wed 03:39:54 PM 35.5075 -110.8700 274° West 351 404 32,100 -581 Descending Albuquerque Center
Wed 03:40:56 PM 35.5144 -110.9825 274° West 349 402 32,000 -629 Descending Albuquerque Center
Wed 03:41:58 PM 35.5208 -111.1128 273° West 344 396 30,800 -968 Descending Albuquerque Center
Wed 03:43:00 PM 35.5258 -111.2242 273° West 342 394 30,000 -387 Descending Albuquerque Center
Wed 03:44:02 PM 35.5339 -111.3522 274° West 339 390 30,000  Level Albuquerque Center
Wed 03:45:04 PM 35.5386 -111.4508 273° West 341 392 30,000  Level Albuquerque Center
Wed 03:46:06 PM 35.5450 -111.5886 273° West 341 392 30,000  Level Albuquerque Center
Wed 03:47:08 PM 35.5503 -111.7033 273° West 339 390 30,000  Level Albuquerque Center
Wed 03:48:10 PM 35.5569 -111.8178 274° West 339 390 30,000  Level Albuquerque Center
Wed 03:49:12 PM 35.5608 -111.9308 272° West 336 387 30,000  Level Albuquerque Center
Wed 03:50:14 PM 35.5669 -112.0544 274° West 356 410 30,000  Level Albuquerque Center
Wed 03:51:16 PM 35.5731 -112.2053 273° West 370 426 30,000  Level Albuquerque Center
Wed 03:52:18 PM 35.5786 -112.3314 273° West 372 428 30,000  Level Albuquerque Center
Wed 03:53:20 PM 35.5839 -112.4586 273° West 375 432 30,000  Level Albuquerque Center
Wed 03:54:22 PM 35.5903 -112.5917 273° West 389 448 30,000  Level Albuquerque Center
Wed 03:55:24 PM 35.5961 -112.7308 273° West 408 470 30,000  Level Albuquerque Center
Wed 03:56:26 PM 35.6017 -112.8972 272° West 411 473 30,000  Level Albuquerque Center
Wed 03:57:28 PM 35.6081 -113.0344 273° West 410 472 30,000  Level Albuquerque Center
Wed 03:58:29 PM 35.6125 -113.1750 272° West 415 478 30,000 -244 Level Albuquerque Center
Wed 03:59:31 PM 35.6167 -113.3136 272° West 415 478 29,500 -1,467 Descending Albuquerque Center
Wed 04:00:44 PM 35.6231 -113.4989 272° West 393 452 26,700 -2,267 Descending Los Angeles Center
Wed 04:01:46 PM 35.6356 -113.6250 277° West 378 435 24,400 -2,032 Descending Los Angeles Center
Wed 04:02:48 PM 35.6542 -113.7467 281° West 369 425 22,500 -2,129 Descending Los Angeles Center
Wed 04:03:50 PM 35.6694 -113.8628 279° West 351 404 20,000 -2,177 Descending Los Angeles Center
Wed 04:04:52 PM 35.6861 -113.9750 280° West 338 389 18,000 -2,065 Descending Los Angeles Center
Wed 04:06:00 PM 35.7020 -114.1109 278° West  Level FlightAware Approximate
Wed 04:06:56 PM 35.7178 -114.2092 278° West 340 391 13,600  Level Los Angeles Center
Wed 04:07:22 PM 35.7294 -114.2769 282° West 345 397 12,500 -1,452 Descending Los Angeles Center
Wed 04:07:58 PM 35.7372 -114.3456 278° West 336 387 12,100 -689 Descending Los Angeles Center
Wed 04:08:23 PM 35.7533 -114.3831 298° West 332 382 11,800 -871 Descending Los Angeles Center
Wed 04:09:00 PM 35.7961 -114.4303 318° Northwest 345 397 11,200 -1,082 Descending Los Angeles Center
Wed 04:09:24 PM 35.8283 -114.4667 318° Northwest 344 396 10,700 -1,048 Descending Los Angeles Center
Wed 04:10:03 PM 35.8664 -114.5058 320° Northwest 338 389 10,100 -689 Descending Los Angeles Center
Wed 04:10:25 PM 35.8964 -114.5392 318° Northwest 319 367 10,000 -97 Descending Los Angeles Center
Wed 04:11:05 PM 35.9297 -114.5742 320° Northwest 307 353 10,000 -98 Level Los Angeles Center
Wed 04:11:26 PM 35.9583 -114.6033 320° Northwest 293 337 9,900 -581 Descending Los Angeles Center
Wed 04:12:07 PM 35.9908 -114.6389 318° Northwest 292 336 9,400 -984 Descending Los Angeles Center
Wed 04:12:27 PM 36.0189 -114.6708 317° Northwest 292 336 8,900 -1,258 Descending Los Angeles Center
Wed 04:13:09 PM 36.0647 -114.7156 322° Northwest 290 334 8,100 -984 Descending Los Angeles Center
Wed 04:13:28 PM 36.0742 -114.7456 291° West 280 322 7,900 -871 Descending Los Angeles Center
Wed 04:14:11 PM 36.0736 -114.8036 269° West 277 319 7,200 -1,100 Descending Los Angeles Center
Wed 04:14:28 PM 36.0742 -114.8333 271° West 254 292 6,800 -1,065 Descending Los Angeles Center
Wed 04:15:13 PM 36.0744 -114.8897 270° West 261 300 6,100 -1,161 Descending Los Angeles Center
Wed 04:15:30 PM 36.0736 -114.9189 268° West 249 287 5,600 -1,065 Descending Los Angeles Center
Wed 04:16:15 PM 36.0742 -114.9719 271° West 251 289 5,000 -1,000 Descending Los Angeles Center
Wed 04:16:30 PM 36.0747 -114.9931 272° West 204 235 4,600 -968 Descending Los Angeles Center
Wed 04:17:17 PM 36.0739 -115.0347 269° West 213 245 4,000 -1,046 Descending Los Angeles Center
Wed 04:18:19 PM 36.0736 -115.0897 270° West 183 211 2,700 -912 Descending Los Angeles Center
Wed 04:19:22 PM 36.0747 -115.1408 272° West 138 159 2,100 -571 Descending Los Angeles Center
Wed 04:21:00 PM 36.0667 -115.1500 270° West  Level FlightAware Approximate

Login

Don't have an account? Register now (free) for customized features, flight alerts, and more!